Sunday, December 17, 2017, 2:38 PM EST
Back to Local

KJST, Johnstown-cambria Co Airport

Location: Johnstown, PA, United States Lat: 40.317
Local Time: 2:38 PM EST (19:38 GMT) Lon: -78.833
Time Zone: US/Eastern Elev: 2283 ft

Show me the last for .
Show Decoded

2017-12-17 13:54 METAR KJST 171854Z AUTO 21006KT 10SM CLR 03/M03 A3009 RMK AO2 SLP208 T00331028 =
2017-12-17 12:54 METAR KJST 171754Z AUTO 22004KT 10SM FEW120 03/M03 A3010 RMK AO2 SLP211
                 T00281028 10028 20006 58019 =
2017-12-17 11:54 METAR KJST 171654Z AUTO 23005KT 10SM CLR 02/M02 A3013 RMK AO2 SLP223 T00221022 =
2017-12-17 10:54 METAR KJST 171554Z AUTO 24008KT 10SM CLR 02/M03 A3019 RMK AO2 SLP244 T00171028 =
2017-12-17 09:54 METAR KJST 171454Z AUTO 23005KT 10SM CLR 01/M03 A3016 RMK AO2 SLP234 T00111033
                 53004 =
2017-12-17 08:54 METAR KJST 171354Z AUTO 23005KT 10SM CLR 01/M03 A3016 RMK AO2 SLP233 T00061033 =
2017-12-17 07:54 METAR KJST 171254Z AUTO 25005KT 10SM CLR 01/M03 A3014 RMK AO2 SLP229 T00111033 =
2017-12-17 06:54 METAR KJST 171154Z AUTO 27009KT 10SM CLR 02/M03 A3015 RMK AO2 SLP230 T00171033
                 10028 20011 53007 =
2017-12-17 05:54 METAR KJST 171054Z AUTO 27012KT 10SM CLR 02/M03 A3012 RMK AO2 SLP221 T00171033 =
2017-12-17 04:54 METAR KJST 170954Z AUTO 26009KT 10SM CLR 02/M03 A3011 RMK AO2 SLP216 T00171033 =
2017-12-17 03:54 METAR KJST 170854Z AUTO 23009KT 10SM CLR 01/M04 A3013 RMK AO2 SLP224 T00111039
                 50010 =
2017-12-17 02:54 METAR KJST 170754Z AUTO 24008KT 10SM CLR 02/M04 A3013 RMK AO2 SLP223 T00221039 =
2017-12-17 01:54 METAR KJST 170654Z AUTO 24010KT 10SM CLR 02/M04 A3012 RMK AO2 SLP219 T00221039 =
2017-12-17 00:54 METAR KJST 170554Z AUTO 23007KT 10SM CLR 02/M04 A3010 RMK AO2 SLP213 T00221039
                 10022 20006 51009 =
2017-12-16 23:54 METAR KJST 170454Z AUTO 25007KT 10SM CLR 02/M04 A3009 RMK AO2 SLP210 T00221044
                 400221056 =
2017-12-16 22:54 METAR KJST 170354Z AUTO 26010KT 10SM CLR 02/M04 A3008 RMK AO2 SLP210 T00221044 =
2017-12-16 21:54 METAR KJST 170254Z AUTO 26009KT 10SM CLR 02/M04 A3007 RMK AO2 SLP204 T00171044
                 51007 =
2017-12-16 20:54 METAR KJST 170154Z AUTO 27012G19KT 10SM CLR 02/M04 A3006 RMK AO2 SLP205
                 T00171044 =
2017-12-16 19:54 METAR KJST 170054Z AUTO 27011KT 10SM CLR 01/M04 A3006 RMK AO2 SLP202 T00111044 =
2017-12-16 18:54 METAR KJST 162354Z AUTO 27008KT 10SM CLR 01/M04 A3004 RMK AO2 SLP199 T00111044
                 10017 20000 53026 =
2017-12-16 17:54 METAR KJST 162254Z AUTO 27009KT 10SM CLR 01/M04 A3001 RMK AO2 SLP189 T00111044 =
2017-12-16 16:54 METAR KJST 162154Z AUTO 25011KT 10SM FEW110 01/M04 A2998 RMK AO2 SLP179
                 T00111044 =
2017-12-16 15:54 METAR KJST 162054Z AUTO 26013KT 10SM FEW110 01/M04 A2996 RMK AO2 SLP170
                 T00111044 53004 =
2017-12-16 14:54 METAR KJST 161954Z AUTO 24012G19KT 10SM FEW024 BKN041 OVC110 01/M04 A2995 RMK
                 AO2 SLP170 T00061039 =
2017-12-16 14:51 METAR KJST 161951Z AUTO 24012G19KT 10SM SCT024 BKN041 OVC085 01/M04 A2995 RMK
                 AO2 =

Support USWX by starting your Amazon purchase here.